CA-0426 weather

CLOSED Herb's Travel Plaza Airstrip
Vankleek Hill, Ontario, Canada

Public forecast

Using degrees Celsius for public forecast. Weather courtesy of forecast.io.

Closest aviation weather report (METAR) to Herb's Travel Plaza Airstrip

Closest report is Montreal International (Mirabel) Airport, 29.7 nm (55.0 km) ENE. Retrieved 2020/02/18 12:00 UTC (16 minutes ago):

CYMX 181200Z 06007KT 20SM BKN055 OVC090 M14/M19 A3028 RMK SC5AS3 SLP262

Closest aviation forecast (TAF) to Herb's Travel Plaza Airstrip

Closest forecast is Montreal International (Mirabel) Airport, 29.7 nm (55.0 km) ENE. Retrieved 2020/02/18 12:42 UTC (0 seconds ago):

TAF TAF CYMX 181138Z 1812/1912 06008KT P6SM OVC100 TEMPO 1813/1815 11/2SM -SN BKN012 OVC030 FM181500 05010KT 1SM -SN VV008 TEMPO 1815/1821 3SM -SN OVC015 PROB40 1815/1821 3/4SM -SN FM182100 07010KT 2SM -SN BR OVC007 PROB30 1821/1823 3SM -FZDZ BR FM182300 19012KT 3SM -RA -DZ BR OVC006 FM190200 25015G25KT P6SM BKN020 FM190400 25012G22KT P6SM BKN025 TEMPO 1908/1912 5SM -SHSN BKN020 RMK NXT FCST BY 181800Z